createdAt,value
2022-09-17T00:01:33.638Z,100.00
2022-09-17T00:04:04.736Z,100.00
2022-09-17T00:06:34.511Z,100.00
2022-09-17T00:09:01.734Z,100.00
2022-09-17T00:11:38.207Z,100.00
2022-09-17T00:14:08.286Z,100.00
2022-09-17T00:16:38.663Z,100.00
2022-09-17T00:19:07.035Z,100.00
2022-09-17T00:21:34.612Z,100.00
2022-09-17T00:24:04.002Z,100.00
2022-09-17T00:26:32.427Z,100.00
2022-09-17T00:28:59.769Z,100.00
2022-09-17T00:31:28.214Z,100.00
2022-09-17T00:33:55.289Z,100.00
2022-09-17T00:36:23.159Z,100.00
2022-09-17T00:38:55.043Z,100.00
2022-09-17T00:41:23.713Z,100.00
2022-09-17T00:43:53.223Z,100.00
2022-09-17T00:46:31.897Z,100.00
2022-09-17T00:49:05.260Z,100.00
2022-09-17T00:51:38.514Z,100.00
2022-09-17T00:54:08.737Z,100.00
2022-09-17T00:56:42.417Z,100.00
2022-09-17T00:59:09.726Z,100.00
2022-09-17T01:01:37.118Z,100.00
2022-09-17T01:04:04.163Z,100.00
2022-09-17T01:06:43.180Z,100.00
2022-09-17T01:09:34.390Z,100.00
2022-09-17T01:12:11.023Z,100.00
2022-09-17T01:15:06.547Z,100.00
2022-09-17T01:17:43.598Z,100.00
2022-09-17T01:20:27.266Z,100.00
2022-09-17T01:23:24.421Z,100.00
2022-09-17T01:26:46.121Z,100.00
2022-09-17T01:29:43.715Z,100.00
2022-09-17T01:32:33.511Z,100.00
2022-09-17T01:35:30.744Z,100.00
2022-09-17T01:38:00.323Z,100.00
2022-09-17T01:40:32.607Z,100.00
2022-09-17T01:43:38.570Z,100.00
2022-09-17T01:46:16.187Z,100.00
2022-09-17T01:48:46.287Z,100.00
2022-09-17T01:51:18.115Z,100.00
2022-09-17T01:53:53.362Z,100.00
2022-09-17T01:56:25.509Z,100.00
2022-09-17T01:59:35.239Z,100.00
2022-09-17T02:02:13.517Z,100.00
2022-09-17T02:04:55.580Z,100.00
2022-09-17T02:07:23.511Z,100.00
2022-09-17T02:09:55.703Z,100.00
2022-09-17T02:12:30.348Z,100.00
2022-09-17T02:14:59.274Z,100.00
2022-09-17T02:17:35.366Z,100.00
2022-09-17T02:20:02.991Z,100.00
2022-09-17T02:22:43.286Z,100.00
2022-09-17T02:25:36.147Z,100.00
2022-09-17T02:28:14.866Z,100.00
2022-09-17T02:30:42.416Z,100.00
2022-09-17T02:33:14.218Z,100.00
2022-09-17T02:35:41.510Z,100.00
2022-09-17T02:38:09.676Z,100.00
2022-09-17T02:40:48.222Z,100.00
2022-09-17T02:43:43.778Z,100.00
2022-09-17T02:46:16.481Z,100.00
2022-09-17T02:49:22.220Z,100.00
2022-09-17T02:52:15.290Z,100.00
2022-09-17T02:54:54.904Z,100.00
2022-09-17T02:57:32.281Z,100.00
2022-09-17T03:00:11.160Z,100.00
2022-09-17T03:02:51.425Z,100.00
2022-09-17T03:05:19.337Z,100.00
2022-09-17T03:07:46.385Z,100.00
2022-09-17T03:10:13.835Z,100.00
2022-09-17T03:12:41.214Z,100.00
2022-09-17T03:15:09.056Z,100.00
2022-09-17T03:17:35.995Z,100.00
2022-09-17T03:20:06.353Z,100.00
2022-09-17T03:22:35.801Z,100.00
2022-09-17T03:25:05.827Z,100.00
2022-09-17T03:27:32.823Z,100.00
2022-09-17T03:29:59.811Z,100.00
2022-09-17T03:32:26.880Z,100.00
2022-09-17T03:34:57.654Z,100.00
2022-09-17T03:37:24.971Z,100.00
2022-09-17T03:39:52.520Z,100.00
2022-09-17T03:42:22.776Z,100.00
2022-09-17T03:44:53.664Z,100.00
2022-09-17T03:47:20.635Z,100.00
2022-09-17T03:49:47.692Z,100.00
2022-09-17T03:52:14.642Z,100.00
2022-09-17T03:54:41.563Z,100.00
2022-09-17T03:57:11.338Z,100.00
2022-09-17T03:59:38.424Z,100.00
2022-09-17T04:02:06.129Z,100.00
2022-09-17T04:04:33.159Z,100.00
2022-09-17T04:07:01.998Z,100.00
2022-09-17T04:09:29.959Z,100.00
2022-09-17T04:11:57.114Z,100.00
2022-09-17T04:14:24.957Z,100.00
2022-09-17T04:16:51.883Z,100.00
2022-09-17T04:19:18.947Z,100.00
2022-09-17T04:21:45.964Z,100.00
2022-09-17T04:24:12.812Z,100.00
2022-09-17T04:26:42.566Z,100.00
2022-09-17T04:29:10.276Z,100.00
2022-09-17T04:31:37.239Z,100.00
2022-09-17T04:34:04.184Z,100.00
2022-09-17T04:36:31.121Z,100.00
2022-09-17T04:38:58.176Z,100.00
2022-09-17T04:41:25.084Z,100.00
2022-09-17T04:43:52.012Z,100.00
2022-09-17T04:46:19.086Z,100.00
2022-09-17T04:48:46.139Z,100.00
2022-09-17T04:51:13.062Z,100.00
2022-09-17T04:53:39.964Z,100.00
2022-09-17T04:56:06.955Z,100.00
2022-09-17T04:58:33.961Z,100.00
2022-09-17T05:01:00.883Z,100.00
2022-09-17T05:03:27.863Z,100.00
2022-09-17T05:05:57.860Z,100.00
2022-09-17T05:08:25.743Z,100.00
2022-09-17T05:10:55.296Z,100.00
2022-09-17T05:13:23.046Z,100.00
2022-09-17T05:15:50.162Z,100.00
2022-09-17T05:18:17.302Z,100.00
2022-09-17T05:20:44.311Z,100.00
2022-09-17T05:23:11.402Z,100.00
2022-09-17T05:25:38.339Z,100.00
2022-09-17T05:28:05.350Z,100.00
2022-09-17T05:30:32.496Z,99.74
2022-09-17T05:33:04.025Z,98.36
2022-09-17T05:35:31.798Z,97.47
2022-09-17T05:38:03.327Z,96.61
2022-09-17T05:40:32.652Z,96.44
2022-09-17T05:43:04.538Z,95.24
2022-09-17T05:45:36.182Z,94.01
2022-09-17T05:48:05.130Z,93.67
2022-09-17T05:50:34.274Z,93.08
2022-09-17T05:53:06.369Z,92.50
2022-09-17T05:56:03.242Z,91.63
2022-09-17T05:58:31.091Z,90.64
2022-09-17T06:01:02.166Z,90.31
2022-09-17T06:03:29.220Z,89.17
2022-09-17T06:05:59.244Z,88.66
2022-09-17T06:08:27.600Z,87.67
2022-09-17T06:10:57.876Z,88.42
2022-09-17T06:13:27.302Z,87.00
2022-09-17T06:15:54.581Z,86.90
2022-09-17T06:18:26.996Z,85.94
2022-09-17T06:21:03.286Z,84.74
2022-09-17T06:23:37.158Z,83.96
2022-09-17T06:26:06.213Z,82.42
2022-09-17T06:28:35.036Z,81.08
2022-09-17T06:31:07.536Z,79.32
2022-09-17T06:33:37.999Z,78.52
2022-09-17T06:36:12.463Z,76.98
2022-09-17T06:38:40.816Z,75.70
2022-09-17T06:41:07.797Z,74.67
2022-09-17T06:43:36.977Z,75.33
2022-09-17T06:46:09.878Z,75.06
2022-09-17T06:48:38.133Z,75.31
2022-09-17T06:51:07.534Z,74.49
2022-09-17T06:53:41.228Z,74.39
2022-09-17T06:56:08.836Z,72.67
2022-09-17T06:58:42.140Z,72.56
2022-09-17T07:01:10.167Z,71.91
2022-09-17T07:03:37.480Z,72.68
2022-09-17T07:06:05.454Z,72.06
2022-09-17T07:08:34.626Z,72.39
2022-09-17T07:11:01.857Z,72.21
2022-09-17T07:13:28.821Z,71.97
2022-09-17T07:15:58.129Z,70.18
2022-09-17T07:18:25.835Z,69.15
2022-09-17T07:20:58.980Z,67.67
2022-09-17T07:23:30.342Z,66.89
2022-09-17T07:26:23.820Z,67.77
2022-09-17T07:28:50.936Z,66.17
2022-09-17T07:31:17.937Z,66.86
2022-09-17T07:33:45.497Z,65.35
2022-09-17T07:36:15.140Z,64.62
2022-09-17T07:38:42.299Z,65.29
2022-09-17T07:41:14.486Z,64.03
2022-09-17T07:43:42.357Z,63.03
2022-09-17T07:46:14.296Z,62.52
2022-09-17T07:48:41.419Z,60.34
2022-09-17T07:51:16.414Z,58.81
2022-09-17T07:53:43.736Z,56.97
2022-09-17T07:56:11.953Z,58.58
2022-09-17T07:58:39.367Z,58.60
2022-09-17T08:01:08.795Z,57.80
2022-09-17T08:03:37.072Z,56.92
2022-09-17T08:06:13.843Z,53.06
2022-09-17T08:08:41.417Z,54.49
2022-09-17T08:11:13.359Z,54.14
2022-09-17T08:13:40.479Z,53.82
2022-09-17T08:16:09.879Z,52.70
2022-09-17T08:18:39.720Z,52.03
2022-09-17T08:21:11.408Z,51.79
2022-09-17T08:23:41.995Z,50.53
2022-09-17T08:26:16.340Z,50.71
2022-09-17T08:28:48.072Z,51.67
2022-09-17T08:31:17.009Z,50.04
2022-09-17T08:33:44.111Z,50.05
2022-09-17T08:36:12.707Z,49.06
2022-09-17T08:38:40.775Z,47.77
2022-09-17T08:41:10.651Z,47.48
2022-09-17T08:43:56.972Z,47.99
2022-09-17T08:46:25.201Z,46.08
2022-09-17T08:48:59.700Z,45.35
2022-09-17T08:51:26.533Z,45.40
2022-09-17T08:54:08.492Z,45.47
2022-09-17T08:56:37.447Z,47.92
2022-09-17T08:59:22.133Z,45.79
2022-09-17T09:02:57.913Z,46.73
2022-09-17T09:05:33.355Z,42.68
2022-09-17T09:08:07.876Z,41.80
2022-09-17T09:10:56.025Z,41.34
2022-09-17T09:13:28.607Z,43.27
2022-09-17T09:16:06.717Z,41.72
2022-09-17T09:18:36.912Z,42.12
2022-09-17T09:21:37.091Z,40.71
2022-09-17T09:24:26.742Z,40.16
2022-09-17T09:26:58.648Z,38.42
2022-09-17T09:29:52.697Z,39.71
2022-09-17T09:32:34.945Z,38.94
2022-09-17T09:35:12.231Z,38.65
2022-09-17T09:37:40.514Z,39.13
2022-09-17T09:40:24.714Z,38.00
2022-09-17T09:42:56.160Z,36.79
2022-09-17T09:45:55.461Z,35.40
2022-09-17T09:48:26.196Z,34.97
2022-09-17T09:51:06.058Z,34.75
2022-09-17T09:53:52.038Z,35.49
2022-09-17T09:56:52.951Z,35.71
2022-09-17T09:59:20.052Z,37.05
2022-09-17T10:01:47.258Z,36.81
2022-09-17T10:04:22.976Z,36.20
2022-09-17T10:06:55.793Z,37.56
2022-09-17T10:09:22.898Z,39.75
2022-09-17T10:12:09.329Z,38.27
2022-09-17T10:14:38.988Z,35.93
2022-09-17T10:17:23.769Z,39.38
2022-09-17T10:20:00.009Z,40.20
2022-09-17T10:22:46.488Z,40.35
2022-09-17T10:25:32.788Z,40.45
2022-09-17T10:28:05.888Z,41.32
2022-09-17T10:30:33.100Z,42.81
2022-09-17T10:33:20.337Z,43.24
2022-09-17T10:35:57.289Z,44.29
2022-09-17T10:38:28.137Z,44.93
2022-09-17T10:41:25.048Z,43.84
2022-09-17T10:43:52.351Z,43.71
2022-09-17T10:46:27.752Z,42.23
2022-09-17T10:49:32.824Z,38.76
2022-09-17T10:52:18.517Z,35.89
2022-09-17T10:55:15.785Z,33.69
2022-09-17T10:58:10.280Z,33.02
2022-09-17T11:00:40.154Z,36.95
2022-09-17T11:03:44.904Z,38.02
2022-09-17T11:06:29.942Z,38.04
2022-09-17T11:09:02.736Z,35.59
2022-09-17T11:11:34.043Z,36.47
2022-09-17T11:14:04.970Z,39.35
2022-09-17T11:16:34.982Z,40.74
2022-09-17T11:19:22.306Z,41.22
2022-09-17T11:22:15.369Z,41.83
2022-09-17T11:25:37.087Z,38.48
2022-09-17T11:28:45.741Z,37.94
2022-09-17T11:31:42.945Z,37.17
2022-09-17T11:34:22.148Z,34.84
2022-09-17T11:37:13.521Z,31.95
2022-09-17T11:39:59.456Z,31.28
2022-09-17T11:42:31.743Z,32.02
2022-09-17T11:45:03.823Z,31.23
2022-09-17T11:47:54.593Z,34.10
2022-09-17T11:50:29.086Z,37.62
2022-09-17T11:53:00.397Z,38.52
2022-09-17T11:55:46.464Z,39.53
2022-09-17T11:58:34.272Z,40.67
2022-09-17T12:01:06.188Z,41.10
2022-09-17T12:03:42.896Z,41.93
2022-09-17T12:06:14.993Z,43.00
2022-09-17T12:08:55.156Z,41.95
2022-09-17T12:11:36.746Z,42.03
2022-09-17T12:14:18.680Z,42.44
2022-09-17T12:16:47.920Z,42.29
2022-09-17T12:19:37.471Z,43.09
2022-09-17T12:22:23.704Z,43.75
2022-09-17T12:24:51.715Z,44.34
2022-09-17T12:27:36.896Z,44.08
2022-09-17T12:30:08.333Z,43.43
2022-09-17T12:32:48.230Z,44.45
2022-09-17T12:35:46.660Z,45.02
2022-09-17T12:38:46.109Z,44.43
2022-09-17T12:41:34.764Z,45.34
2022-09-17T12:44:24.894Z,45.10
2022-09-17T12:47:09.587Z,44.48
2022-09-17T12:49:56.506Z,41.26
2022-09-17T12:52:43.099Z,40.56
2022-09-17T12:55:34.272Z,35.45
2022-09-17T12:58:04.359Z,34.87
2022-09-17T13:00:41.671Z,36.88
2022-09-17T13:03:29.207Z,36.24
2022-09-17T13:06:30.271Z,37.34
2022-09-17T13:09:15.763Z,39.75
2022-09-17T13:11:51.719Z,42.23
2022-09-17T13:14:42.013Z,41.13
2022-09-17T13:17:20.395Z,42.29
2022-09-17T13:20:20.431Z,43.19
2022-09-17T13:22:50.242Z,44.40
2022-09-17T13:25:19.048Z,43.48
2022-09-17T13:27:47.308Z,38.31
2022-09-17T13:30:19.001Z,34.72
2022-09-17T13:32:47.960Z,34.91
2022-09-17T13:35:17.710Z,37.95
2022-09-17T13:37:54.053Z,40.07
2022-09-17T13:40:31.121Z,42.02
2022-09-17T13:43:06.444Z,42.74
2022-09-17T13:45:34.571Z,43.08
2022-09-17T13:48:11.494Z,43.52
2022-09-17T13:50:41.042Z,44.18
2022-09-17T13:53:17.285Z,43.14
2022-09-17T13:55:45.478Z,41.68
2022-09-17T13:58:26.614Z,41.15
2022-09-17T14:00:58.925Z,42.56
2022-09-17T14:03:29.197Z,44.44
2022-09-17T14:05:57.069Z,45.06
2022-09-17T14:08:31.691Z,45.47
2022-09-17T14:11:03.392Z,46.45
2022-09-17T14:13:36.593Z,46.93
2022-09-17T14:16:36.407Z,46.89
2022-09-17T14:19:34.316Z,46.79
2022-09-17T14:22:06.030Z,46.24
2022-09-17T14:24:42.033Z,46.55
2022-09-17T14:27:46.788Z,47.80
2022-09-17T14:30:33.875Z,48.16
2022-09-17T14:33:01.198Z,49.61
2022-09-17T14:35:36.329Z,50.28
2022-09-17T14:38:08.945Z,50.63
2022-09-17T14:40:39.225Z,50.45
2022-09-17T14:43:06.670Z,50.78
2022-09-17T14:45:37.530Z,50.97
2022-09-17T14:48:27.825Z,51.43
2022-09-17T14:51:20.245Z,51.61
2022-09-17T14:53:49.777Z,51.54
2022-09-17T14:56:19.843Z,52.15
2022-09-17T14:58:52.446Z,52.53
2022-09-17T15:01:24.556Z,52.85
2022-09-17T15:04:12.760Z,53.24
2022-09-17T15:06:41.360Z,53.60
2022-09-17T15:09:26.546Z,54.07
2022-09-17T15:11:59.079Z,54.63
2022-09-17T15:14:31.093Z,54.69
2022-09-17T15:17:00.937Z,55.08
2022-09-17T15:19:33.551Z,55.33
2022-09-17T15:22:08.607Z,57.25
2022-09-17T15:24:44.021Z,63.29
2022-09-17T15:27:12.850Z,67.85
2022-09-17T15:29:43.295Z,70.67
2022-09-17T15:32:15.713Z,71.32
2022-09-17T15:34:42.994Z,71.09
2022-09-17T15:37:21.181Z,72.71
2022-09-17T15:39:54.752Z,74.78
2022-09-17T15:42:28.516Z,75.74
2022-09-17T15:45:21.634Z,76.80
2022-09-17T15:47:54.606Z,75.87
2022-09-17T15:50:27.239Z,74.75
2022-09-17T15:53:11.191Z,75.27
2022-09-17T15:55:44.038Z,75.82
2022-09-17T15:58:45.711Z,75.66
2022-09-17T16:01:15.688Z,76.00
2022-09-17T16:03:45.790Z,76.95
2022-09-17T16:06:19.352Z,78.17
2022-09-17T16:08:47.732Z,78.25
2022-09-17T16:11:15.412Z,76.95
2022-09-17T16:13:42.537Z,75.87
2022-09-17T16:16:18.425Z,75.62
2022-09-17T16:18:45.979Z,75.36
2022-09-17T16:21:14.152Z,74.49
2022-09-17T16:23:41.444Z,73.50
2022-09-17T16:26:16.464Z,72.74
2022-09-17T16:28:44.396Z,72.54
2022-09-17T16:31:13.732Z,72.16
2022-09-17T16:33:41.291Z,71.96
2022-09-17T16:36:08.390Z,72.36
2022-09-17T16:38:36.218Z,72.63
2022-09-17T16:41:05.819Z,73.03
2022-09-17T16:43:35.941Z,73.44
2022-09-17T16:46:12.523Z,73.28
2022-09-17T16:48:41.223Z,73.87
2022-09-17T16:51:12.142Z,73.89
2022-09-17T16:53:40.126Z,74.08
2022-09-17T16:56:11.441Z,74.41
2022-09-17T16:58:38.795Z,74.19
2022-09-17T17:01:14.664Z,73.81
2022-09-17T17:03:42.127Z,73.38
2022-09-17T17:06:19.725Z,73.15
2022-09-17T17:08:46.891Z,72.88
2022-09-17T17:11:14.382Z,72.55
2022-09-17T17:13:44.358Z,72.66
2022-09-17T17:16:13.810Z,72.62
2022-09-17T17:18:45.619Z,72.92
2022-09-17T17:21:13.868Z,72.88
2022-09-17T17:23:43.522Z,73.09
2022-09-17T17:26:10.613Z,73.46
2022-09-17T17:28:38.123Z,73.80
2022-09-17T17:31:06.091Z,73.92
2022-09-17T17:33:33.457Z,73.59
2022-09-17T17:36:08.265Z,73.44
2022-09-17T17:38:36.471Z,73.09
2022-09-17T17:41:09.673Z,73.25
2022-09-17T17:43:37.990Z,73.46
2022-09-17T17:46:09.698Z,73.44
2022-09-17T17:48:37.047Z,73.75
2022-09-17T17:51:07.832Z,74.06
2022-09-17T17:53:35.822Z,74.25
2022-09-17T17:56:05.925Z,74.16
2022-09-17T17:58:33.827Z,74.84
2022-09-17T18:01:09.364Z,75.01
2022-09-17T18:03:36.460Z,75.67
2022-09-17T18:06:05.609Z,76.22
2022-09-17T18:08:32.980Z,76.28
2022-09-17T18:11:00.502Z,77.00
2022-09-17T18:13:27.476Z,78.16
2022-09-17T18:15:59.047Z,78.64
2022-09-17T18:18:31.538Z,78.52
2022-09-17T18:21:06.097Z,78.96
2022-09-17T18:23:39.266Z,79.25
2022-09-17T18:26:09.287Z,79.67
2022-09-17T18:28:39.274Z,79.63
2022-09-17T18:31:06.455Z,80.03
2022-09-17T18:33:36.612Z,80.22
2022-09-17T18:36:05.363Z,80.33
2022-09-17T18:38:33.475Z,80.64
2022-09-17T18:41:05.424Z,80.89
2022-09-17T18:43:34.120Z,80.77
2022-09-17T18:46:01.257Z,81.05
2022-09-17T18:48:31.138Z,81.04
2022-09-17T18:51:03.875Z,81.27
2022-09-17T18:53:36.396Z,81.37
2022-09-17T18:56:20.947Z,81.11
2022-09-17T18:58:50.911Z,81.32
2022-09-17T19:01:19.050Z,81.53
2022-09-17T19:03:46.084Z,81.60
2022-09-17T19:06:16.470Z,81.62
2022-09-17T19:08:45.098Z,81.66
2022-09-17T19:11:13.076Z,82.06
2022-09-17T19:13:42.612Z,82.21
2022-09-17T19:16:10.709Z,82.34
2022-09-17T19:18:38.004Z,82.59
2022-09-17T19:21:11.500Z,82.88
2022-09-17T19:23:46.948Z,83.08
2022-09-17T19:26:25.540Z,82.87
2022-09-17T19:28:53.495Z,82.96
2022-09-17T19:31:21.044Z,83.36
2022-09-17T19:33:49.199Z,83.29
2022-09-17T19:36:18.283Z,83.83
2022-09-17T19:38:46.128Z,83.74
2022-09-17T19:41:15.762Z,84.00
2022-09-17T19:43:43.269Z,84.32
2022-09-17T19:46:19.727Z,84.45
2022-09-17T19:48:53.276Z,84.43
2022-09-17T19:51:21.374Z,84.63
2022-09-17T19:53:48.744Z,85.31
2022-09-17T19:56:20.893Z,85.75
2022-09-17T19:58:47.945Z,86.11
2022-09-17T20:01:15.494Z,86.62
2022-09-17T20:03:44.452Z,87.04
2022-09-17T20:06:14.503Z,87.17
2022-09-17T20:08:46.991Z,87.38
2022-09-17T20:11:15.140Z,87.62
2022-09-17T20:13:42.261Z,87.92
2022-09-17T20:16:12.042Z,88.29
2022-09-17T20:18:40.407Z,88.67
2022-09-17T20:21:12.455Z,88.72
2022-09-17T20:23:39.863Z,88.91
2022-09-17T20:26:07.059Z,89.35
2022-09-17T20:28:37.641Z,89.44
2022-09-17T20:31:12.809Z,89.86
2022-09-17T20:33:40.547Z,89.77
2022-09-17T20:36:12.090Z,90.11
2022-09-17T20:41:27.825Z,90.38
2022-09-17T20:43:55.210Z,90.70
2022-09-17T20:46:28.369Z,90.66
2022-09-17T20:48:59.086Z,90.92
2022-09-17T20:51:28.454Z,91.21
2022-09-17T20:53:57.246Z,91.55
2022-09-17T20:56:29.467Z,91.84
2022-09-17T20:59:04.003Z,92.09
2022-09-17T21:01:36.953Z,92.00
2022-09-17T21:04:08.761Z,92.09
2022-09-17T21:06:38.719Z,92.56
2022-09-17T21:09:06.502Z,92.71
2022-09-17T21:11:34.470Z,92.74
2022-09-17T21:14:01.727Z,93.07
2022-09-17T21:16:29.516Z,93.27
2022-09-17T21:18:58.585Z,93.39
2022-09-17T21:21:26.434Z,93.44
2022-09-17T21:23:53.603Z,93.29
2022-09-17T21:26:23.278Z,93.50
2022-09-17T21:28:51.945Z,93.46
2022-09-17T21:31:22.644Z,93.72
2022-09-17T21:33:53.783Z,94.08
2022-09-17T21:36:22.512Z,94.41
2022-09-17T21:38:57.519Z,94.71
2022-09-17T21:41:25.507Z,94.95
2022-09-17T21:43:53.031Z,95.17
2022-09-17T21:46:22.838Z,95.19
2022-09-17T21:48:57.618Z,95.34
2022-09-17T21:51:30.576Z,95.19
2022-09-17T21:54:03.188Z,95.46
2022-09-17T21:56:30.835Z,95.47
2022-09-17T21:59:02.959Z,95.41
2022-09-17T22:01:32.774Z,95.46
2022-09-17T22:04:00.365Z,95.54
2022-09-17T22:06:29.354Z,95.84
2022-09-17T22:08:57.542Z,95.75
2022-09-17T22:11:27.977Z,95.71
2022-09-17T22:14:05.327Z,96.03
2022-09-17T22:16:35.942Z,96.14
2022-09-17T22:19:04.933Z,96.25
2022-09-17T22:21:34.016Z,96.40
2022-09-17T22:24:02.114Z,96.52
2022-09-17T22:26:32.058Z,96.48
2022-09-17T22:29:20.322Z,96.47
2022-09-17T22:31:47.798Z,96.57
2022-09-17T22:34:17.412Z,96.36
2022-09-17T22:36:44.427Z,96.44
2022-09-17T22:39:11.655Z,96.39
2022-09-17T22:41:44.417Z,96.44
2022-09-17T22:44:14.213Z,96.48
2022-09-17T22:46:41.965Z,96.70
2022-09-17T22:49:10.752Z,96.71
2022-09-17T22:51:38.038Z,96.78
2022-09-17T22:54:06.198Z,97.01
2022-09-17T22:56:34.488Z,96.99
2022-09-17T22:59:01.419Z,97.22
2022-09-17T23:01:31.317Z,97.46
2022-09-17T23:03:59.589Z,97.52
2022-09-17T23:06:31.103Z,97.83
2022-09-17T23:08:58.552Z,97.83
2022-09-17T23:11:31.062Z,98.25
2022-09-17T23:14:02.322Z,98.51
2022-09-17T23:16:35.779Z,98.61
2022-09-17T23:19:03.161Z,98.82
2022-09-17T23:21:30.145Z,98.95
2022-09-17T23:23:57.450Z,98.96
2022-09-17T23:26:26.055Z,99.13
2022-09-17T23:28:53.480Z,99.14
2022-09-17T23:31:26.169Z,99.29
2022-09-17T23:33:53.783Z,99.05
2022-09-17T23:36:24.027Z,99.51
2022-09-17T23:38:54.495Z,99.45
2022-09-17T23:41:22.703Z,99.50
2022-09-17T23:43:54.772Z,99.69
2022-09-17T23:46:23.372Z,99.88
2022-09-17T23:48:51.768Z,99.93
2022-09-17T23:51:18.900Z,100.00
2022-09-17T23:53:48.105Z,100.00
2022-09-17T23:56:21.251Z,100.00
2022-09-17T23:58:49.624Z,100.00
